createdAt,value
2018-11-22T00:00:13.680Z,27
2018-11-22T00:01:03.032Z,26.8
2018-11-22T00:01:53.962Z,26.8
2018-11-22T00:02:42.897Z,27
2018-11-22T00:03:33.862Z,27.4
2018-11-22T00:04:24.434Z,27.6
2018-11-22T00:06:04.509Z,28.1
2018-11-22T00:06:53.314Z,28.3
2018-11-22T00:25:08.940Z,30.9
2018-11-22T00:25:59.535Z,31
2018-11-22T00:26:47.943Z,31
2018-11-22T00:27:38.703Z,31.1
2018-11-22T00:28:28.280Z,31.1
2018-11-22T00:29:18.225Z,31.1
2018-11-22T00:30:09.440Z,31.2
2018-11-22T00:30:59.432Z,31.2
2018-11-22T00:31:48.785Z,31.2
2018-11-22T00:32:37.780Z,31.3
2018-11-22T00:33:28.250Z,31.2
2018-11-22T00:34:18.592Z,31
2018-11-22T00:35:09.412Z,30.9
2018-11-22T00:35:58.487Z,30.8
2018-11-22T00:36:48.113Z,30.6
2018-11-22T00:37:38.585Z,30.4
2018-11-22T00:38:29.442Z,30.3
2018-11-22T00:39:19.390Z,30.2
2018-11-22T00:40:09.845Z,30.1
2018-11-22T00:41:00.183Z,29.9
2018-11-22T00:41:48.681Z,29.8
2018-11-22T00:42:39.001Z,28.7
2018-11-22T00:43:28.014Z,28.1
2018-11-22T00:44:18.916Z,27.8
2018-11-22T00:45:09.016Z,27.6
2018-11-22T00:45:59.746Z,27.4
2018-11-22T00:46:49.583Z,27.2
2018-11-22T00:47:38.866Z,27.1
2018-11-22T00:48:28.740Z,26.9
2018-11-22T00:49:19.569Z,26.8
2018-11-22T00:50:09.092Z,26.9
2018-11-22T00:51:00.397Z,27.3
2018-11-22T00:51:50.161Z,27.5
2018-11-22T00:52:39.503Z,27.7
2018-11-22T00:53:29.044Z,27.9
2018-11-22T00:54:20.563Z,28.1
2018-11-22T00:55:09.914Z,28.3
2018-11-22T00:56:01.255Z,28.5
2018-11-22T00:56:49.663Z,28.7
2018-11-22T00:57:40.820Z,28.8
2018-11-22T00:58:30.524Z,28.8
2018-11-22T00:59:19.168Z,28.7
2018-11-22T01:00:09.883Z,28
2018-11-22T01:01:02.133Z,27.3
2018-11-22T01:01:50.981Z,26.6
2018-11-22T01:02:39.925Z,25.8
2018-11-22T01:03:31.111Z,25
2018-11-22T01:04:21.116Z,24.1
2018-11-22T01:05:10.335Z,23.6
2018-11-22T01:06:02.765Z,23.6
2018-11-22T01:06:51.462Z,24.1
2018-11-22T01:07:40.885Z,24.9
2018-11-22T01:08:30.933Z,26
2018-11-22T01:09:21.280Z,26.6
2018-11-22T01:10:11.170Z,26.9
2018-11-22T01:11:02.684Z,27.3
2018-11-22T01:11:51.452Z,27.5
2018-11-22T01:13:32.717Z,28.2
2018-11-22T01:14:21.792Z,28.5
2018-11-22T01:15:12.567Z,28.8
2018-11-22T01:16:02.465Z,29.1
2018-11-22T01:16:52.314Z,29.3
2018-11-22T01:17:41.994Z,29.5
2018-11-22T01:18:31.987Z,29.7
2018-11-22T01:19:21.135Z,29.9
2018-11-22T01:20:12.149Z,30.1
2018-11-22T01:21:02.377Z,30.3
2018-11-22T01:21:51.754Z,30.4
2018-11-22T01:22:42.205Z,30.5
2018-11-22T01:23:31.549Z,30.6
2018-11-22T01:24:22.208Z,30.8
2018-11-22T01:25:11.322Z,30.9
2018-11-22T01:26:02.049Z,31
2018-11-22T01:26:53.086Z,31.1
2018-11-22T01:27:41.777Z,31.2
2018-11-22T01:28:32.154Z,31.3
2018-11-22T01:29:22.876Z,31.1
2018-11-22T01:30:12.841Z,31
2018-11-22T01:31:01.544Z,30.9
2018-11-22T01:31:52.091Z,30.7
2018-11-22T01:32:43.020Z,30.6
2018-11-22T01:33:31.884Z,30.4
2018-11-22T01:34:22.282Z,30.3
2018-11-22T01:35:12.723Z,30.1
2018-11-22T01:36:03.488Z,30
2018-11-22T01:36:53.581Z,29.9
2018-11-22T01:37:43.326Z,28.7
2018-11-22T01:38:33.163Z,28.1
2018-11-22T01:39:22.058Z,27.8
2018-11-22T01:40:12.411Z,27.5
2018-11-22T01:41:04.313Z,27.3
2018-11-22T01:41:53.645Z,27.1
2018-11-22T01:42:42.998Z,27
2018-11-22T01:43:33.533Z,26.9
2018-11-22T01:44:24.070Z,26.8
2018-11-22T01:45:13.905Z,26.9
2018-11-22T01:46:03.375Z,27.3
2018-11-22T01:46:54.145Z,27.5
2018-11-22T01:47:44.028Z,27.8
2018-11-22T01:48:33.970Z,28
2018-11-22T01:49:23.880Z,28.3
2018-11-22T01:50:14.018Z,28.6
2018-11-22T01:51:04.587Z,28.8
2018-11-22T01:51:55.232Z,29.1
2018-11-22T01:52:44.434Z,29.3
2018-11-22T01:53:34.365Z,29.5
2018-11-22T01:54:24.627Z,29.7
2018-11-22T01:55:14.877Z,29.9
2018-11-22T01:56:04.841Z,30.1
2018-11-22T01:56:54.992Z,30.2
2018-11-22T01:57:45.219Z,30.3
2018-11-22T01:58:33.270Z,30.5
2018-11-22T01:59:25.977Z,30.6
2018-11-22T02:00:14.701Z,30.7
2018-11-22T02:01:05.017Z,30.8
2018-11-22T02:01:54.988Z,30.9
2018-11-22T02:02:44.887Z,31
2018-11-22T02:03:35.234Z,31.1
2018-11-22T02:04:25.482Z,31.2
2018-11-22T02:05:14.315Z,31.3
2018-11-22T02:06:04.459Z,31.2
2018-11-22T02:06:54.951Z,31.1
2018-11-22T02:07:45.591Z,30.9
2018-11-22T02:08:36.380Z,30.8
2018-11-22T02:09:26.366Z,30.6
2018-11-22T02:10:14.511Z,30.5
2018-11-22T02:11:05.322Z,30.3
2018-11-22T02:11:56.317Z,30.2
2018-11-22T02:12:46.404Z,30.1
2018-11-22T02:13:35.626Z,29.9
2018-11-22T02:14:24.988Z,29.8
2018-11-22T02:15:15.423Z,28.6
2018-11-22T02:16:05.426Z,27.9
2018-11-22T02:16:55.755Z,27.6
2018-11-22T02:17:46.313Z,27.4
2018-11-22T02:18:37.145Z,27.3
2018-11-22T02:19:25.353Z,27.1
2018-11-22T02:20:15.764Z,26.9
2018-11-22T02:21:06.625Z,26.8
2018-11-22T02:21:55.030Z,26.8
2018-11-22T02:22:47.173Z,26.9
2018-11-22T02:23:37.053Z,27.4
2018-11-22T02:24:25.611Z,27.5
2018-11-22T02:25:15.823Z,27.8
2018-11-22T02:26:06.498Z,28.1
2018-11-22T02:26:56.619Z,28.3
2018-11-22T02:27:47.480Z,28.5
2018-11-22T02:28:37.122Z,28.8
2018-11-22T02:29:26.421Z,29.1
2018-11-22T02:30:17.545Z,29.3
2018-11-22T02:31:07.138Z,29.4
2018-11-22T02:31:57.422Z,29.6
2018-11-22T02:32:48.727Z,29.8
2018-11-22T02:33:38.267Z,29.9
2018-11-22T02:34:26.785Z,30.1
2018-11-22T02:35:16.660Z,30.2
2018-11-22T02:36:07.639Z,30.3
2018-11-22T02:36:58.337Z,30.4
2018-11-22T02:37:47.875Z,30.6
2018-11-22T02:38:37.964Z,30.7
2018-11-22T02:39:27.297Z,30.8
2018-11-22T02:40:16.240Z,30.9
2018-11-22T02:41:07.859Z,30.9
2018-11-22T02:41:57.091Z,31
2018-11-22T02:42:47.495Z,31.1
2018-11-22T02:43:37.085Z,31.1
2018-11-22T02:44:28.047Z,31.3
2018-11-22T02:45:17.796Z,31.2
2018-11-22T02:46:07.614Z,31.1
2018-11-22T02:46:57.436Z,30.9
2018-11-22T02:47:46.558Z,30.8
2018-11-22T02:48:37.218Z,30.6
2018-11-22T02:49:28.699Z,30.5
2018-11-22T02:50:18.745Z,30.3
2018-11-22T02:51:08.434Z,30.3
2018-11-22T02:51:58.819Z,30.1
2018-11-22T02:52:48.256Z,29.9
2018-11-22T02:53:39.618Z,29.8
2018-11-22T02:54:29.198Z,28.8
2018-11-22T02:55:18.606Z,28.2
2018-11-22T02:56:08.548Z,27.8
2018-11-22T02:56:58.934Z,27.5
2018-11-22T02:57:49.751Z,27.3
2018-11-22T02:58:39.641Z,27.2
2018-11-22T02:59:29.367Z,27.1
2018-11-22T03:00:19.460Z,26.9
2018-11-22T03:01:09.106Z,26.8
2018-11-22T03:01:58.773Z,26.9
2018-11-22T03:02:49.055Z,27.3
2018-11-22T03:03:39.830Z,27.4
2018-11-22T03:04:28.773Z,27.7
2018-11-22T03:05:20.123Z,27.9
2018-11-22T03:06:09.988Z,28.2
2018-11-22T03:07:00.078Z,28.4
2018-11-22T03:07:50.156Z,28.7
2018-11-22T03:08:40.558Z,28.9
2018-11-22T03:09:29.852Z,29.1
2018-11-22T03:10:18.965Z,29.3
2018-11-22T03:11:10.787Z,29.5
2018-11-22T03:12:00.492Z,29.6
2018-11-22T03:12:51.942Z,29.8
2018-11-22T03:13:39.043Z,29.9
2018-11-22T03:14:30.243Z,30
2018-11-22T03:15:20.417Z,30.1
2018-11-22T03:16:10.543Z,30.2
2018-11-22T03:16:59.972Z,30.3
2018-11-22T03:17:49.788Z,30.4
2018-11-22T03:18:38.957Z,30.4
2018-11-22T03:19:31.347Z,30.6
2018-11-22T03:20:21.057Z,30.6
2018-11-22T03:21:10.267Z,30.7
2018-11-22T03:22:00.035Z,30.8
2018-11-22T03:22:51.685Z,30.8
2018-11-22T03:23:41.139Z,30.9
2018-11-22T03:24:31.516Z,30.9
2018-11-22T03:25:20.355Z,31
2018-11-22T03:26:10.728Z,31
2018-11-22T03:27:01.534Z,31.1
2018-11-22T03:27:51.834Z,31.1
2018-11-22T03:28:40.879Z,31.1
2018-11-22T03:29:31.687Z,31.2
2018-11-22T03:30:22.133Z,31.2
2018-11-22T03:31:11.932Z,31.3
2018-11-22T03:32:01.917Z,31.3
2018-11-22T03:32:52.311Z,31.1
2018-11-22T03:33:40.271Z,31
2018-11-22T03:34:31.762Z,30.9
2018-11-22T03:35:21.761Z,30.7
2018-11-22T03:36:11.468Z,30.6
2018-11-22T03:37:01.278Z,30.4
2018-11-22T03:37:51.273Z,30.3
2018-11-22T03:38:41.606Z,30.1
2018-11-22T03:39:31.731Z,30
2018-11-22T03:40:21.342Z,29.9
2018-11-22T03:41:11.971Z,29.8
2018-11-22T03:42:01.324Z,29.2
2018-11-22T03:42:51.628Z,28.3
2018-11-22T03:44:33.476Z,27.5
2018-11-22T03:45:21.043Z,27.3
2018-11-22T03:46:11.750Z,27.1
2018-11-22T03:47:03.445Z,27
2018-11-22T03:47:52.098Z,26.9
2018-11-22T03:48:41.643Z,26.7
2018-11-22T03:49:32.260Z,26.8
2018-11-22T03:50:22.665Z,27.1
2018-11-22T03:51:13.001Z,27.4
2018-11-22T03:52:03.580Z,27.6
2018-11-22T03:53:42.105Z,28
2018-11-22T03:54:32.819Z,28.3
2018-11-22T03:55:24.357Z,28.4
2018-11-22T03:56:13.210Z,28.6
2018-11-22T03:57:01.758Z,28.7
2018-11-22T03:57:53.487Z,28.7
2018-11-22T03:58:42.438Z,28.1
2018-11-22T03:59:33.235Z,27.4
2018-11-22T04:00:23.332Z,26.8
2018-11-22T04:01:12.934Z,26.1
2018-11-22T04:02:04.052Z,25.3
2018-11-22T04:02:54.353Z,24.4
2018-11-22T04:03:42.416Z,23.7
2018-11-22T04:04:33.578Z,23.4
2018-11-22T04:05:23.171Z,23.7
2018-11-22T04:06:13.939Z,24.4
2018-11-22T04:07:03.532Z,25.4
2018-11-22T04:07:53.152Z,26.3
2018-11-22T04:08:43.657Z,26.8
2018-11-22T04:09:33.109Z,27.1
2018-11-22T04:10:24.194Z,27.3
2018-11-22T04:11:13.264Z,27.6
2018-11-22T04:12:04.208Z,28
2018-11-22T04:12:53.047Z,28.3
2018-11-22T04:13:44.231Z,28.6
2018-11-22T04:14:33.839Z,28.9
2018-11-22T04:15:23.841Z,29.1
2018-11-22T04:16:15.325Z,29.4
2018-11-22T04:17:04.527Z,29.6
2018-11-22T04:17:55.658Z,29.8
2018-11-22T04:18:43.791Z,30
2018-11-22T04:19:34.196Z,30.1
2018-11-22T04:20:22.782Z,30.3
2018-11-22T04:21:14.453Z,30.4
2018-11-22T04:22:04.637Z,30.6
2018-11-22T04:22:54.242Z,30.7
2018-11-22T04:23:43.970Z,30.9
2018-11-22T04:24:34.566Z,30.9
2018-11-22T04:25:25.073Z,30.9
2018-11-22T04:26:14.123Z,31.1
2018-11-22T04:27:05.664Z,31.1
2018-11-22T04:27:55.025Z,31.2
2018-11-22T04:28:44.491Z,31.2
2018-11-22T04:29:34.518Z,31.3
2018-11-22T04:30:25.178Z,31.1
2018-11-22T04:31:14.498Z,30.9
2018-11-22T04:32:04.787Z,30.8
2018-11-22T04:32:55.229Z,30.6
2018-11-22T04:33:44.992Z,30.5
2018-11-22T04:34:34.922Z,30.4
2018-11-22T04:35:25.583Z,30.3
2018-11-22T04:36:16.232Z,30.1
2018-11-22T04:37:05.517Z,29.9
2018-11-22T04:54:25.529Z,29.4
2018-11-22T04:55:15.153Z,29.6
2018-11-22T04:56:05.807Z,29.8
2018-11-22T04:56:55.776Z,29.9
2018-11-22T04:57:45.561Z,30.1
2018-11-22T04:58:36.483Z,30.2
2018-11-22T04:59:25.108Z,30.3
2018-11-22T05:00:14.938Z,30.4
2018-11-22T05:01:05.208Z,30.6
2018-11-22T05:01:54.426Z,30.6
2018-11-22T05:02:47.028Z,30.8
2018-11-22T05:03:34.810Z,30.8
2018-11-22T05:04:32.596Z,30.9
2018-11-22T05:05:16.321Z,31
2018-11-22T05:06:06.645Z,31.1
2018-11-22T05:06:55.373Z,31.2
2018-11-22T05:07:46.540Z,31.2
2018-11-22T05:08:35.760Z,31.2
2018-11-22T05:09:25.732Z,31.1
2018-11-22T05:10:15.533Z,30.9
2018-11-22T05:11:06.736Z,30.8
2018-11-22T05:11:56.175Z,30.6
2018-11-22T05:12:45.755Z,30.5
2018-11-22T05:13:37.237Z,30.4
2018-11-22T05:14:26.232Z,30.2
2018-11-22T05:15:14.900Z,30.1
2018-11-22T05:16:06.544Z,29.9
2018-11-22T05:16:56.200Z,29.8
2018-11-22T05:17:45.575Z,29.1
2018-11-22T05:18:35.887Z,28.3
2018-11-22T05:19:25.750Z,27.8
2018-11-22T05:20:16.962Z,27.5
2018-11-22T05:21:06.327Z,27.3
2018-11-22T05:21:56.132Z,27.1
2018-11-22T05:22:47.002Z,26.9
2018-11-22T05:23:37.408Z,26.8
2018-11-22T05:24:27.211Z,26.6
2018-11-22T05:25:15.842Z,26.8
2018-11-22T05:26:07.829Z,27.1
2018-11-22T05:26:57.036Z,27.4
2018-11-22T05:27:47.132Z,27.6
2018-11-22T05:29:26.284Z,28.1
2018-11-22T05:30:18.101Z,28.3
2018-11-22T05:31:07.681Z,28.6
2018-11-22T05:31:58.674Z,28.8
2018-11-22T05:32:47.521Z,29.1
2018-11-22T05:33:37.992Z,29.2
2018-11-22T05:34:27.064Z,29.4
2018-11-22T05:35:17.648Z,29.6
2018-11-22T05:36:08.207Z,29.7
2018-11-22T05:36:57.391Z,29.9
2018-11-22T05:37:47.341Z,30
2018-11-22T05:38:38.354Z,30.1
2018-11-22T05:39:29.033Z,30.3
2018-11-22T05:40:18.226Z,30.3
2018-11-22T05:41:08.008Z,30.4
2018-11-22T05:41:58.876Z,30.6
2018-11-22T05:42:48.331Z,30.6
2018-11-22T05:43:38.776Z,30.7
2018-11-22T05:44:29.630Z,30.8
2018-11-22T05:45:19.169Z,30.9
2018-11-22T05:46:08.888Z,30.9
2018-11-22T05:47:03.174Z,31
2018-11-22T05:47:48.165Z,31.1
2018-11-22T05:48:38.165Z,31.1
2018-11-22T05:49:28.505Z,31.2
2018-11-22T05:50:18.550Z,31.3
2018-11-22T05:51:08.523Z,31.2
2018-11-22T05:51:57.925Z,31.1
2018-11-22T05:52:48.950Z,30.9
2018-11-22T05:53:38.622Z,30.8
2018-11-22T05:54:28.762Z,30.6
2018-11-22T05:55:19.105Z,30.5
2018-11-22T05:56:08.312Z,30.3
2018-11-22T05:56:59.015Z,30.2
2018-11-22T05:57:49.905Z,30.1
2018-11-22T05:58:39.510Z,29.9
2018-11-22T05:59:28.895Z,29.8
2018-11-22T06:00:19.547Z,29.2
2018-11-22T06:01:09.089Z,28.2
2018-11-22T06:01:59.662Z,27.8
2018-11-22T06:02:50.051Z,27.4
2018-11-22T06:03:39.361Z,27.2
2018-11-22T06:04:30.032Z,27.1
2018-11-22T06:05:19.966Z,26.9
2018-11-22T06:06:09.746Z,26.8
2018-11-22T06:06:59.624Z,26.6
2018-11-22T06:07:48.821Z,26.7
2018-11-22T06:08:39.851Z,27
2018-11-22T06:09:30.454Z,27.3
2018-11-22T06:10:20.127Z,27.5
2018-11-22T06:11:10.664Z,27.8
2018-11-22T06:12:00.769Z,28
2018-11-22T06:12:50.474Z,28.3
2018-11-22T06:13:39.721Z,28.4
2018-11-22T06:14:30.907Z,28.7
2018-11-22T06:15:19.765Z,28.9
2018-11-22T06:16:10.712Z,29.1
2018-11-22T06:17:01.507Z,29.3
2018-11-22T06:17:50.776Z,29.4
2018-11-22T06:18:40.665Z,29.6
2018-11-22T06:19:31.121Z,29.6
2018-11-22T06:20:21.596Z,29.8
2018-11-22T06:21:11.788Z,29.9
2018-11-22T06:22:01.871Z,29.9
2018-11-22T06:22:50.581Z,30.1
2018-11-22T06:23:40.900Z,30.1
2018-11-22T06:24:31.269Z,30.2
2018-11-22T06:25:20.646Z,30.3
2018-11-22T06:26:11.135Z,30.4
2018-11-22T06:27:02.048Z,30.4
2018-11-22T06:27:51.788Z,30.5
2018-11-22T06:28:41.188Z,30.6
2018-11-22T06:29:31.617Z,30.6
2018-11-22T06:30:20.818Z,30.7
2018-11-22T06:31:14.953Z,30.7
2018-11-22T06:32:01.582Z,30.8
2018-11-22T06:32:51.802Z,30.8
2018-11-22T06:33:41.380Z,30.8
2018-11-22T06:34:31.472Z,30.9
2018-11-22T06:35:21.595Z,30.9
2018-11-22T06:36:11.469Z,30.9
2018-11-22T06:37:01.498Z,30.9
2018-11-22T06:37:50.382Z,30.9
2018-11-22T06:38:42.327Z,30.6
2018-11-22T06:39:32.027Z,30.3
2018-11-22T06:40:21.222Z,29.6
2018-11-22T06:41:12.532Z,28.9
2018-11-22T06:42:01.907Z,28.1
2018-11-22T06:42:51.804Z,27.3
2018-11-22T06:43:43.107Z,26.4
2018-11-22T06:44:32.289Z,25.4
2018-11-22T06:45:21.819Z,24.8
2018-11-22T06:46:13.007Z,24.8
2018-11-22T06:47:03.439Z,25.2
2018-11-22T06:47:51.895Z,26.1
2018-11-22T06:48:42.224Z,26.8
2018-11-22T06:49:31.891Z,27.3
2018-11-22T06:50:23.719Z,27.6
2018-11-22T06:51:13.354Z,27.9
2018-11-22T06:52:03.531Z,28.3
2018-11-22T06:52:53.508Z,28.6
2018-11-22T06:53:41.988Z,28.9
2018-11-22T06:54:33.076Z,29.1
2018-11-22T06:55:23.730Z,29.4
2018-11-22T06:56:14.418Z,29.6
2018-11-22T06:57:03.548Z,29.8
2018-11-22T06:57:53.094Z,30.1
2018-11-22T06:58:44.091Z,30.3
2018-11-22T06:59:33.971Z,30.4
2018-11-22T07:00:23.898Z,30.6
2018-11-22T07:01:13.558Z,30.8
2018-11-22T07:02:04.370Z,30.9
2018-11-22T07:02:53.100Z,31
2018-11-22T07:03:44.462Z,31.1
2018-11-22T07:04:34.010Z,31.3
2018-11-22T07:05:23.888Z,31.3
2018-11-22T07:06:13.745Z,31.1
2018-11-22T07:07:04.588Z,31
2018-11-22T07:07:53.842Z,30.8
2018-11-22T07:08:44.827Z,30.7
2018-11-22T07:09:32.960Z,30.6
2018-11-22T07:10:24.197Z,30.4
2018-11-22T07:11:14.142Z,30.3
2018-11-22T07:12:04.922Z,30.1
2018-11-22T07:12:54.485Z,30
2018-11-22T07:13:44.717Z,29.9
2018-11-22T07:14:34.706Z,28.8
2018-11-22T07:15:24.446Z,28.1
2018-11-22T07:16:14.782Z,27.7
2018-11-22T07:17:05.170Z,27.4
2018-11-22T07:17:54.792Z,27.3
2018-11-22T07:18:44.793Z,27.1
2018-11-22T07:19:34.154Z,27
2018-11-22T07:20:24.624Z,26.9
2018-11-22T07:21:14.525Z,26.8
2018-11-22T07:22:05.124Z,27.1
2018-11-22T07:22:56.657Z,27.4
2018-11-22T07:23:45.159Z,27.6
2018-11-22T07:24:34.955Z,27.9
2018-11-22T07:25:26.646Z,28.3
2018-11-22T07:26:15.781Z,28.5
2018-11-22T07:27:05.527Z,28.8
2018-11-22T07:27:56.125Z,29.1
2018-11-22T07:28:46.469Z,29.3
2018-11-22T07:29:36.116Z,29.5
2018-11-22T07:30:25.591Z,29.8
2018-11-22T07:31:15.739Z,29.9
2018-11-22T07:32:06.508Z,30.1
2018-11-22T07:32:55.975Z,30.3
2018-11-22T07:33:47.246Z,30.4
2018-11-22T07:34:35.626Z,30.6
2018-11-22T07:35:26.621Z,30.7
2018-11-22T07:36:16.884Z,30.9
2018-11-22T07:37:05.456Z,30.9
2018-11-22T07:37:56.600Z,31.1
2018-11-22T07:38:47.358Z,31.2
2018-11-22T07:39:36.240Z,31.3
2018-11-22T07:40:26.568Z,31.2
2018-11-22T07:41:16.046Z,31
2018-11-22T07:42:06.503Z,30.9
2018-11-22T07:42:59.266Z,30.8
2018-11-22T07:43:47.089Z,30.6
2018-11-22T07:44:37.487Z,30.4
2018-11-22T07:45:28.315Z,30.3
2018-11-22T07:46:17.308Z,30.2
2018-11-22T07:47:05.710Z,30
2018-11-22T07:47:56.618Z,29.9
2018-11-22T07:48:46.939Z,28.9
2018-11-22T07:49:36.555Z,28.2
2018-11-22T07:50:26.713Z,27.8
2018-11-22T07:51:17.632Z,27.5
2018-11-22T07:52:07.154Z,27.3
2018-11-22T07:53:04.985Z,27.2
2018-11-22T07:53:46.781Z,27
2018-11-22T07:54:37.027Z,26.9
2018-11-22T07:55:27.073Z,26.8
2018-11-22T07:56:17.254Z,26.9
2018-11-22T07:57:07.527Z,27.3
2018-11-22T07:57:57.291Z,27.4
2018-11-22T07:58:47.477Z,27.7
2018-11-22T07:59:37.111Z,28
2018-11-22T08:00:28.291Z,28.3
2018-11-22T08:01:17.569Z,28.6
2018-11-22T08:02:07.484Z,28.8
2018-11-22T08:02:57.852Z,29.1
2018-11-22T08:03:46.927Z,29.3
2018-11-22T08:04:37.259Z,29.6
2018-11-22T08:05:27.152Z,29.8
2018-11-22T08:06:17.424Z,29.9
2018-11-22T08:07:08.648Z,30.1
2018-11-22T08:07:58.341Z,30.3
2018-11-22T08:08:49.638Z,30.4
2018-11-22T08:09:37.631Z,30.6
2018-11-22T08:10:28.274Z,30.7
2018-11-22T08:11:19.195Z,30.8
2018-11-22T08:12:14.594Z,30.9
2018-11-22T08:12:59.527Z,31.1
2018-11-22T08:13:48.866Z,31.1
2018-11-22T08:14:39.090Z,31.3
2018-11-22T08:15:28.898Z,31.3
2018-11-22T08:16:19.516Z,31.1
2018-11-22T08:17:09.113Z,30.9
2018-11-22T08:17:58.469Z,30.8
2018-11-22T08:18:49.103Z,30.7
2018-11-22T08:19:37.853Z,30.5
2018-11-22T08:20:28.826Z,30.4
2018-11-22T08:21:17.812Z,30.3
2018-11-22T08:22:09.378Z,30.1
2018-11-22T08:22:59.991Z,29.9
2018-11-22T08:23:50.093Z,29.8
2018-11-22T08:24:40.023Z,29.7
2018-11-22T08:25:30.310Z,28.4
2018-11-22T08:27:08.917Z,27.5
2018-11-22T08:28:00.007Z,27.3
2018-11-22T08:28:50.748Z,27.1
2018-11-22T08:29:39.555Z,27
2018-11-22T08:30:30.142Z,26.8
2018-11-22T08:31:19.156Z,26.6
2018-11-22T08:32:10.402Z,26.7
2018-11-22T08:33:00.623Z,27
2018-11-22T08:33:51.138Z,27.3
2018-11-22T08:34:41.549Z,27.6
2018-11-22T08:35:30.244Z,27.9
2018-11-22T08:36:20.258Z,28.2
2018-11-22T08:37:09.604Z,28.4
2018-11-22T08:42:40.136Z,28.8
2018-11-22T08:42:58.064Z,30.2
2018-11-22T08:43:40.333Z,30.3
2018-11-22T08:44:30.357Z,30.4
2018-11-22T08:45:20.729Z,30.6
2018-11-22T08:46:11.946Z,30.7
2018-11-22T08:46:59.884Z,30.8
2018-11-22T08:47:50.268Z,30.9
2018-11-22T08:48:39.871Z,31.1
2018-11-22T08:49:30.308Z,31.2
2018-11-22T08:50:21.503Z,31.3
2018-11-22T08:51:11.856Z,31.1
2018-11-22T08:52:01.119Z,31
2018-11-22T08:52:50.961Z,30.9
2018-11-22T09:08:54.867Z,27.3
2018-11-22T09:09:44.610Z,27.6
2018-11-22T09:10:35.739Z,27.9
2018-11-22T09:11:24.719Z,28.2
2018-11-22T09:12:14.529Z,28.5
2018-11-22T09:13:04.339Z,28.8
2018-11-22T09:13:54.929Z,29.1
2018-11-22T09:14:44.091Z,29.3
2018-11-22T09:15:39.619Z,29.6
2018-11-22T09:16:24.484Z,29.8
2018-11-22T09:17:14.009Z,29.9
2018-11-22T09:18:04.631Z,30.1
2018-11-22T09:18:54.961Z,30.3
2018-11-22T09:19:45.266Z,30.5
2018-11-22T09:20:34.776Z,30.6
2018-11-22T09:21:26.201Z,30.8
2018-11-22T09:22:15.698Z,30.9
2018-11-22T09:23:03.926Z,31.1
2018-11-22T09:23:55.928Z,31.2
2018-11-22T09:24:45.343Z,31.3
2018-11-22T09:25:35.376Z,31.2
2018-11-22T09:26:24.893Z,31.1
2018-11-22T09:27:16.323Z,30.9
2018-11-22T09:28:05.008Z,30.8
2018-11-22T09:28:56.141Z,30.7
2018-11-22T09:29:47.746Z,30.5
2018-11-22T09:30:36.611Z,30.4
2018-11-22T09:31:25.790Z,30.2
2018-11-22T09:32:15.549Z,30.1
2018-11-22T09:33:06.251Z,29.9
2018-11-22T09:33:55.126Z,29.8
2018-11-22T09:34:46.046Z,28.9
2018-11-22T09:35:36.672Z,28.1
2018-11-22T09:36:25.890Z,27.7
2018-11-22T09:37:16.482Z,27.4
2018-11-22T09:38:05.434Z,27.2
2018-11-22T09:38:56.865Z,27.1
2018-11-22T09:39:46.364Z,26.9
2018-11-22T09:40:35.939Z,26.8
2018-11-22T09:41:26.058Z,26.7
2018-11-22T09:42:18.284Z,26.6
2018-11-22T09:43:06.398Z,26.9
2018-11-22T09:43:56.952Z,27.3
2018-11-22T09:44:47.825Z,27.4
2018-11-22T09:46:28.189Z,28.1
2018-11-22T09:47:16.919Z,28.4
2018-11-22T09:48:06.468Z,28.7
2018-11-22T09:48:58.347Z,29
2018-11-22T09:49:47.194Z,29.3
2018-11-22T09:50:37.744Z,29.5
2018-11-22T09:51:28.364Z,29.7
2018-11-22T09:52:18.401Z,29.9
2018-11-22T09:53:09.006Z,30.1
2018-11-22T09:53:58.477Z,30.3
2018-11-22T09:54:48.875Z,30.4
2018-11-22T09:55:38.377Z,30.6
2018-11-22T09:56:29.248Z,30.8
2018-11-22T09:57:18.752Z,30.9
2018-11-22T09:58:09.358Z,31
2018-11-22T09:58:59.931Z,31.1
2018-11-22T09:59:48.724Z,31.3
2018-11-22T10:00:37.636Z,31.3
2018-11-22T10:01:28.756Z,31.2
2018-11-22T10:02:17.719Z,31
2018-11-22T10:03:11.350Z,30.9
2018-11-22T10:03:58.144Z,30.8
2018-11-22T10:04:51.675Z,30.6
2018-11-22T10:05:40.376Z,30.4
2018-11-22T10:06:28.288Z,30.3
2018-11-22T10:07:18.065Z,30.2
2018-11-22T10:08:09.571Z,30.1
2018-11-22T10:08:58.714Z,29.9
2018-11-22T10:09:49.025Z,29.5
2018-11-22T10:10:39.138Z,28.4
2018-11-22T10:11:29.227Z,27.9
2018-11-22T10:12:18.619Z,27.6
2018-11-22T10:13:09.278Z,27.3
2018-11-22T10:13:58.557Z,27.2
2018-11-22T10:14:48.932Z,27.1
2018-11-22T10:15:38.875Z,26.9
2018-11-22T10:16:28.457Z,26.8
2018-11-22T10:17:20.342Z,26.6
2018-11-22T10:18:09.103Z,26.8
2018-11-22T10:18:59.985Z,27.1
2018-11-22T10:19:47.892Z,27.3
2018-11-22T10:20:39.784Z,27.6
2018-11-22T10:21:30.164Z,27.9
2018-11-22T10:22:19.956Z,28.2
2018-11-22T10:23:10.365Z,28.5
2018-11-22T10:24:02.383Z,28.8
2018-11-22T10:24:49.273Z,29.1
2018-11-22T10:25:39.582Z,29.3
2018-11-22T10:26:29.077Z,29.6
2018-11-22T10:27:19.777Z,29.8
2018-11-22T10:28:09.536Z,29.9
2018-11-22T10:29:00.702Z,30.1
2018-11-22T10:29:49.682Z,30.3
2018-11-22T10:30:39.502Z,30.4
2018-11-22T10:31:29.517Z,30.6
2018-11-22T10:32:19.419Z,30.8
2018-11-22T10:33:09.966Z,30.9
2018-11-22T10:33:59.496Z,31
2018-11-22T10:34:51.456Z,31.1
2018-11-22T10:35:39.569Z,31.3
2018-11-22T10:36:29.544Z,31.3
2018-11-22T10:37:20.163Z,31.1
2018-11-22T10:38:13.000Z,31
2018-11-22T10:39:00.516Z,30.8
2018-11-22T10:39:50.904Z,30.7
2018-11-22T10:40:41.191Z,30.6
2018-11-22T10:41:30.948Z,30.4
2018-11-22T10:42:22.140Z,30.3
2018-11-22T10:44:01.101Z,30
2018-11-22T10:44:51.776Z,29.9
2018-11-22T10:45:41.544Z,29.8
2018-11-22T10:46:31.569Z,29.6
2018-11-22T10:47:20.850Z,29.5
2018-11-22T10:48:10.320Z,29.4
2018-11-22T10:49:01.258Z,28.3
2018-11-22T10:49:58.009Z,27.9
2018-11-22T10:50:41.056Z,28.3
2018-11-22T10:51:31.120Z,28.1
2018-11-22T10:52:22.055Z,28.3
2018-11-22T10:53:11.220Z,28.6
2018-11-22T10:54:02.423Z,28.8
2018-11-22T10:54:51.045Z,29
2018-11-22T10:55:42.545Z,29.3
2018-11-22T10:56:31.995Z,29.5
2018-11-22T10:57:21.890Z,29.7
2018-11-22T10:58:12.130Z,29.9
2018-11-22T10:59:01.736Z,30.1
2018-11-22T10:59:51.382Z,30.3
2018-11-22T11:00:42.679Z,30.4
2018-11-22T11:01:32.609Z,30.6
2018-11-22T11:02:24.512Z,30.7
2018-11-22T11:03:12.176Z,30.7
2018-11-22T11:04:03.011Z,30.3
2018-11-22T11:04:52.554Z,29.9
2018-11-22T11:05:41.684Z,29.2
2018-11-22T11:06:33.314Z,28.4
2018-11-22T11:07:23.472Z,27.8
2018-11-22T11:08:13.612Z,26.9
2018-11-22T11:09:03.160Z,26.2
2018-11-22T11:09:52.431Z,26
2018-11-22T11:10:42.312Z,26.3
2018-11-22T11:11:33.379Z,26.9
2018-11-22T11:12:28.951Z,27.4
2018-11-22T11:14:01.847Z,28.1
2018-11-22T11:14:53.290Z,28.4
2018-11-22T11:15:43.496Z,28.8
2018-11-22T11:16:34.208Z,29.1
2018-11-22T11:17:22.657Z,29.4
2018-11-22T11:18:13.293Z,29.7
2018-11-22T11:19:03.891Z,29.9
2018-11-22T11:19:53.146Z,30.2
2018-11-22T11:20:43.493Z,30.4
2018-11-22T11:21:35.399Z,30.6
2018-11-22T11:22:24.424Z,30.8
2018-11-22T11:23:13.062Z,31
2018-11-22T11:24:04.473Z,31.1
2018-11-22T11:24:53.240Z,31.3
2018-11-22T11:25:44.068Z,31.3
2018-11-22T11:26:33.956Z,31.1
2018-11-22T11:27:24.715Z,31
2018-11-22T11:28:14.216Z,30.9
2018-11-22T11:29:03.943Z,30.7
2018-11-22T11:29:54.888Z,30.6
2018-11-22T11:30:44.435Z,30.4
2018-11-22T11:31:34.690Z,30.3
2018-11-22T11:32:23.923Z,30.1
2018-11-22T11:33:15.378Z,30
2018-11-22T11:34:06.208Z,29.9
2018-11-22T11:34:54.695Z,29.8
2018-11-22T11:35:43.143Z,29.6
2018-11-22T11:36:34.603Z,29.5
2018-11-22T11:37:25.133Z,28.5
2018-11-22T11:38:15.707Z,28.1
2018-11-22T11:39:04.730Z,28.4
2018-11-22T11:40:00.964Z,28.3
2018-11-22T11:40:44.807Z,28.4
2018-11-22T11:41:35.219Z,28.7
2018-11-22T11:42:24.670Z,28.9
2018-11-22T11:43:13.910Z,29.2
2018-11-22T11:44:04.754Z,29.4
2018-11-22T11:44:54.664Z,29.7
2018-11-22T11:45:44.487Z,29.9
2018-11-22T11:46:35.548Z,30.2
2018-11-22T11:47:25.362Z,30.4
2018-11-22T11:48:14.582Z,30.6
2018-11-22T11:49:05.092Z,30.8
2018-11-22T11:49:55.464Z,30.9
2018-11-22T11:50:45.722Z,31.1
2018-11-22T11:51:35.303Z,31.3
2018-11-22T11:52:26.432Z,31.3
2018-11-22T11:53:15.937Z,31.1
2018-11-22T11:54:06.270Z,31.1
2018-11-22T11:54:56.917Z,30.9
2018-11-22T11:55:45.289Z,30.8
2018-11-22T11:56:34.296Z,30.6
2018-11-22T11:57:25.734Z,30.5
2018-11-22T11:58:16.836Z,30.3
2018-11-22T11:59:05.871Z,30.2
2018-11-22T11:59:56.721Z,30.1
2018-11-22T12:00:45.372Z,29.9
2018-11-22T12:01:35.447Z,28.8
2018-11-22T12:02:26.899Z,28.1
2018-11-22T12:03:16.316Z,27.8
2018-11-22T12:04:06.731Z,27.5
2018-11-22T12:04:56.731Z,27.3
2018-11-22T12:05:46.876Z,27.1
2018-11-22T12:06:36.413Z,27
2018-11-22T12:07:25.904Z,26.9
2018-11-22T12:08:16.779Z,26.8
2018-11-22T12:09:07.619Z,26.6